createdAt,value
2019-05-09T00:01:35.393Z,8.53
2019-05-09T00:04:04.813Z,9.83
2019-05-09T00:06:35.634Z,10.27
2019-05-09T00:09:06.171Z,10.17
2019-05-09T00:11:35.892Z,10.30
2019-05-09T00:14:05.430Z,11.90
2019-05-09T00:16:34.806Z,11.20
2019-05-09T00:19:04.476Z,10.90
2019-05-09T00:21:54.158Z,12.13
2019-05-09T00:24:23.877Z,11.77
2019-05-09T00:26:53.684Z,12.70
2019-05-09T00:29:25.646Z,12.75
2019-05-09T00:31:56.941Z,13.95
2019-05-09T00:34:34.365Z,12.88
2019-05-09T00:37:03.743Z,13.17
2019-05-09T00:39:34.156Z,13.10
2019-05-09T00:42:04.393Z,13.00
2019-05-09T00:44:35.536Z,13.53
2019-05-09T00:47:08.944Z,13.90
2019-05-09T00:49:38.794Z,16.50
2019-05-09T00:52:08.498Z,15.90
2019-05-09T00:54:37.859Z,17.77
2019-05-09T00:57:07.549Z,18.10
2019-05-09T00:59:36.907Z,17.37
2019-05-09T01:02:06.452Z,18.23
2019-05-09T01:04:35.830Z,18.77
2019-05-09T01:07:05.490Z,20.07
2019-05-09T01:09:35.118Z,19.93
2019-05-09T01:12:04.496Z,21.73
2019-05-09T01:14:34.130Z,21.87
2019-05-09T01:17:04.348Z,24.50
2019-05-09T01:19:34.038Z,23.10
2019-05-09T01:22:04.003Z,22.60
2019-05-09T01:24:34.032Z,24.50
2019-05-09T01:27:03.963Z,24.45
2019-05-09T01:29:33.896Z,22.27
2019-05-09T01:32:05.536Z,25.82
2019-05-09T01:34:36.184Z,24.50
2019-05-09T01:37:06.825Z,25.80
2019-05-09T01:39:36.647Z,27.10
2019-05-09T01:42:06.467Z,27.23
2019-05-09T01:44:35.838Z,27.53
2019-05-09T01:47:05.195Z,25.97
2019-05-09T01:49:34.719Z,29.67
2019-05-09T01:52:04.151Z,25.90
2019-05-09T01:54:35.711Z,27.48
2019-05-09T01:57:05.401Z,27.30
2019-05-09T01:59:34.791Z,26.77
2019-05-09T02:02:08.733Z,26.07
2019-05-09T02:04:35.502Z,27.00
2019-05-09T02:07:04.873Z,24.40
2019-05-09T02:09:34.596Z,25.07
2019-05-09T02:12:04.863Z,24.63
2019-05-09T02:14:50.693Z,21.20
2019-05-09T02:17:36.263Z,24.87
2019-05-09T02:20:06.380Z,25.07
2019-05-09T02:22:36.233Z,24.90
2019-05-09T02:25:10.433Z,24.23
2019-05-09T02:27:39.873Z,23.70
2019-05-09T02:30:14.760Z,25.27
2019-05-09T02:32:44.747Z,24.40
2019-05-09T02:35:13.835Z,25.40
2019-05-09T02:37:43.174Z,23.67
2019-05-09T02:40:13.363Z,22.20
2019-05-09T02:42:42.903Z,21.73
2019-05-09T02:45:13.418Z,22.10
2019-05-09T02:47:42.952Z,22.67
2019-05-09T02:50:13.011Z,22.40
2019-05-09T02:52:42.663Z,24.00
2019-05-09T02:55:12.468Z,22.13
2019-05-09T02:57:42.000Z,20.13
2019-05-09T03:00:13.008Z,21.70
2019-05-09T03:02:59.250Z,22.10
2019-05-09T03:05:29.617Z,21.10
2019-05-09T03:07:58.537Z,20.30
2019-05-09T03:10:29.525Z,20.47
2019-05-09T03:12:59.627Z,19.57
2019-05-09T03:15:29.605Z,19.57
2019-05-09T03:17:59.971Z,18.90
2019-05-09T03:20:33.869Z,21.05
2019-05-09T03:23:03.232Z,19.70
2019-05-09T03:25:33.233Z,21.45
2019-05-09T03:28:09.752Z,19.87
2019-05-09T03:30:42.313Z,21.20
2019-05-09T03:33:11.977Z,20.50
2019-05-09T03:35:41.347Z,21.10
2019-05-09T03:38:11.180Z,21.57
2019-05-09T03:40:40.852Z,22.85
2019-05-09T03:43:10.205Z,22.50
2019-05-09T03:45:58.483Z,21.13
2019-05-09T03:48:37.427Z,21.43
2019-05-09T03:51:08.235Z,21.10
2019-05-09T03:53:38.062Z,20.72
2019-05-09T03:56:09.138Z,21.20
2019-05-09T03:58:38.735Z,20.77
2019-05-09T04:01:10.702Z,21.20
2019-05-09T04:03:39.206Z,19.97
2019-05-09T04:06:09.107Z,22.62
2019-05-09T04:08:38.842Z,19.40
2019-05-09T04:11:08.731Z,20.07
2019-05-09T04:13:42.169Z,21.27
2019-05-09T04:16:11.529Z,21.40
2019-05-09T04:18:41.174Z,21.30
2019-05-09T04:21:10.541Z,19.00
2019-05-09T04:23:40.068Z,21.00
2019-05-09T04:26:27.656Z,20.90
2019-05-09T04:28:57.815Z,18.83
2019-05-09T04:31:28.100Z,19.40
2019-05-09T04:33:57.581Z,19.40
2019-05-09T04:36:38.739Z,18.17
2019-05-09T04:39:17.723Z,17.70
2019-05-09T04:41:44.536Z,15.77
2019-05-09T04:44:24.739Z,14.93
2019-05-09T04:46:58.976Z,13.53
2019-05-09T04:49:29.639Z,14.40
2019-05-09T04:51:58.389Z,13.03
2019-05-09T04:54:28.201Z,14.00
2019-05-09T04:56:57.641Z,12.47
2019-05-09T04:59:28.358Z,10.72
2019-05-09T05:01:59.824Z,11.53
2019-05-09T05:04:29.503Z,11.20
2019-05-09T05:06:58.837Z,8.53
2019-05-09T05:09:28.548Z,9.30
2019-05-09T05:11:58.318Z,11.23
2019-05-09T05:14:29.305Z,9.50
2019-05-09T05:17:07.586Z,10.03
2019-05-09T05:19:31.512Z,8.30
2019-05-09T05:22:02.849Z,7.93
2019-05-09T05:24:38.187Z,8.50
2019-05-09T05:27:08.375Z,8.70
2019-05-09T05:29:38.470Z,7.65
2019-05-09T05:32:10.682Z,8.00
2019-05-09T05:34:58.185Z,7.30
2019-05-09T05:37:28.135Z,7.80
2019-05-09T05:39:58.331Z,7.53
2019-05-09T05:42:28.369Z,8.30
2019-05-09T05:44:58.440Z,6.87
2019-05-09T05:47:41.973Z,7.70
2019-05-09T05:50:11.418Z,7.13
2019-05-09T05:52:40.745Z,6.33
2019-05-09T05:55:11.341Z,5.30
2019-05-09T05:57:40.700Z,6.63
2019-05-09T06:00:11.586Z,5.70
2019-05-09T06:02:41.235Z,4.60
2019-05-09T06:05:10.662Z,4.93
2019-05-09T06:07:40.274Z,4.10
2019-05-09T06:10:09.809Z,4.03
2019-05-09T06:12:39.474Z,4.03
2019-05-09T06:15:08.915Z,4.03
2019-05-09T06:17:38.340Z,3.90
2019-05-09T06:20:08.948Z,3.80
2019-05-09T06:22:38.538Z,4.70
2019-05-09T06:25:09.752Z,3.45
2019-05-09T06:27:42.357Z,4.63
2019-05-09T06:30:10.796Z,4.27
2019-05-09T06:32:40.392Z,3.47
2019-05-09T06:35:12.927Z,4.30
2019-05-09T06:37:42.743Z,3.60
2019-05-09T06:40:17.715Z,3.60
2019-05-09T06:42:48.882Z,2.90
2019-05-09T06:45:27.828Z,3.30
2019-05-09T06:47:58.277Z,3.43
2019-05-09T06:50:28.764Z,3.27
2019-05-09T06:52:58.418Z,3.07
2019-05-09T06:55:29.768Z,3.90
2019-05-09T06:58:01.109Z,3.30
2019-05-09T07:00:37.918Z,3.33
2019-05-09T07:03:12.104Z,3.20
2019-05-09T07:06:01.109Z,3.70
2019-05-09T07:08:32.428Z,3.87
2019-05-09T07:11:01.803Z,3.43
2019-05-09T07:13:31.446Z,3.30
2019-05-09T07:16:02.058Z,3.50
2019-05-09T07:18:31.468Z,3.20
2019-05-09T07:21:01.102Z,3.33
2019-05-09T07:23:30.739Z,2.80
2019-05-09T07:26:13.528Z,2.93
2019-05-09T07:28:43.329Z,2.70
2019-05-09T07:31:20.030Z,2.97
2019-05-09T07:33:52.239Z,2.90
2019-05-09T07:36:21.874Z,3.30
2019-05-09T07:38:51.540Z,2.63
2019-05-09T07:41:20.917Z,2.90
2019-05-09T07:43:50.670Z,2.80
2019-05-09T07:46:24.369Z,2.57
2019-05-09T07:48:57.608Z,2.53
2019-05-09T07:51:27.483Z,2.63
2019-05-09T07:53:58.977Z,3.50
2019-05-09T07:56:31.859Z,2.80
2019-05-09T07:59:01.848Z,2.40
2019-05-09T08:01:31.508Z,2.27
2019-05-09T08:04:00.868Z,2.37
2019-05-09T08:06:30.267Z,2.50
2019-05-09T08:08:59.652Z,2.23
2019-05-09T08:11:32.289Z,2.47
2019-05-09T08:14:00.801Z,2.70
2019-05-09T08:16:30.165Z,2.50
2019-05-09T08:18:59.896Z,2.13
2019-05-09T08:21:29.558Z,2.62
2019-05-09T08:23:59.151Z,2.20
2019-05-09T08:26:30.051Z,2.50
2019-05-09T08:28:59.971Z,2.30
2019-05-09T08:31:29.879Z,2.12
2019-05-09T08:33:59.640Z,2.53
2019-05-09T08:36:29.083Z,2.60
2019-05-09T08:38:59.166Z,2.40
2019-05-09T08:41:29.386Z,2.85
2019-05-09T08:43:59.256Z,2.53
2019-05-09T08:46:29.178Z,2.40
2019-05-09T08:48:58.769Z,2.67
2019-05-09T08:51:37.671Z,2.80
2019-05-09T08:54:01.663Z,2.35
2019-05-09T08:56:31.216Z,2.23
2019-05-09T08:59:02.148Z,2.27
2019-05-09T09:01:49.848Z,2.60
2019-05-09T09:04:03.079Z,2.90
2019-05-09T09:06:32.736Z,3.45
2019-05-09T09:09:02.175Z,2.37
2019-05-09T09:11:32.801Z,3.08
2019-05-09T09:14:02.152Z,3.07
2019-05-09T09:16:31.793Z,2.53
2019-05-09T09:19:01.155Z,2.70
2019-05-09T09:21:30.847Z,2.62
2019-05-09T09:24:00.167Z,2.40
2019-05-09T09:26:29.810Z,2.60
2019-05-09T09:28:59.177Z,2.60
2019-05-09T09:31:28.840Z,1.80
2019-05-09T09:33:58.735Z,1.70
2019-05-09T09:36:28.382Z,2.30
2019-05-09T09:38:58.756Z,1.90
2019-05-09T09:41:28.858Z,2.87
2019-05-09T09:43:58.619Z,2.47
2019-05-09T09:46:28.734Z,2.33
2019-05-09T09:48:58.742Z,1.77
2019-05-09T09:51:28.521Z,2.47
2019-05-09T09:53:58.487Z,2.00
2019-05-09T09:56:28.582Z,2.10
2019-05-09T09:59:02.716Z,2.97
2019-05-09T10:01:33.703Z,2.07
2019-05-09T10:04:19.126Z,2.43
2019-05-09T10:06:39.026Z,2.30
2019-05-09T10:09:09.549Z,2.40
2019-05-09T10:11:39.904Z,2.20
2019-05-09T10:14:10.954Z,3.13
2019-05-09T10:16:59.974Z,2.50
2019-05-09T10:19:43.940Z,2.95
2019-05-09T10:22:24.442Z,2.63
2019-05-09T10:24:52.095Z,2.70
2019-05-09T10:27:21.729Z,2.62
2019-05-09T10:29:51.096Z,46.90
2019-05-09T10:32:21.102Z,8.90
2019-05-09T10:34:50.491Z,11.63
2019-05-09T10:37:20.170Z,8.13
2019-05-09T10:39:51.178Z,4.47
2019-05-09T10:42:40.641Z,3.98
2019-05-09T10:45:28.028Z,2.87
2019-05-09T10:47:57.706Z,4.97
2019-05-09T10:50:34.059Z,2.77
2019-05-09T10:52:58.585Z,2.47
2019-05-09T10:55:28.432Z,3.15
2019-05-09T10:58:02.418Z,2.57
2019-05-09T11:00:29.309Z,2.80
2019-05-09T11:02:58.963Z,2.23
2019-05-09T11:05:28.399Z,2.17
2019-05-09T11:07:58.911Z,2.20
2019-05-09T11:10:32.362Z,2.40
2019-05-09T11:12:59.818Z,2.62
2019-05-09T11:15:29.208Z,2.40
2019-05-09T11:17:58.592Z,2.60
2019-05-09T11:20:28.619Z,2.20
2019-05-09T11:22:58.313Z,2.20
2019-05-09T11:25:27.991Z,2.30
2019-05-09T11:28:10.183Z,2.33
2019-05-09T11:30:28.939Z,2.33
2019-05-09T11:32:59.761Z,2.77
2019-05-09T11:35:29.643Z,2.72
2019-05-09T11:37:59.390Z,4.20
2019-05-09T11:40:29.252Z,1.67
2019-05-09T11:42:59.146Z,2.15
2019-05-09T11:45:28.762Z,3.37
2019-05-09T11:47:58.485Z,2.40
2019-05-09T11:50:28.270Z,2.35
2019-05-09T11:52:59.986Z,2.05
2019-05-09T11:55:35.707Z,1.50
2019-05-09T11:58:00.707Z,1.90
2019-05-09T12:00:30.372Z,1.90
2019-05-09T12:03:00.250Z,1.80
2019-05-09T12:05:29.615Z,1.70
2019-05-09T12:07:59.047Z,1.60
2019-05-09T12:10:28.812Z,1.60
2019-05-09T12:12:58.176Z,1.50
2019-05-09T12:15:29.025Z,2.45
2019-05-09T12:18:04.050Z,2.23
2019-05-09T12:20:29.582Z,1.57
2019-05-09T12:22:59.304Z,2.53
2019-05-09T12:25:29.023Z,1.90
2019-05-09T12:27:58.779Z,1.90
2019-05-09T12:30:28.678Z,1.90
2019-05-09T12:33:01.625Z,2.00
2019-05-09T12:39:08.682Z,1.73
2019-05-09T12:41:45.199Z,1.90
2019-05-09T12:44:14.543Z,2.10
2019-05-09T12:46:44.213Z,2.70
2019-05-09T12:49:13.568Z,2.13
2019-05-09T12:51:43.228Z,2.52
2019-05-09T12:54:12.844Z,2.93
2019-05-09T12:57:07.932Z,2.98
2019-05-09T13:02:39.257Z,2.70
2019-05-09T13:05:08.849Z,2.00
2019-05-09T13:07:42.213Z,1.50
2019-05-09T13:10:10.032Z,2.13
2019-05-09T13:16:14.580Z,2.53
2019-05-09T13:19:02.687Z,2.98
2019-05-09T13:21:33.230Z,2.30
2019-05-09T13:24:02.717Z,2.67
2019-05-09T13:26:32.719Z,2.20
2019-05-09T13:29:03.272Z,2.37
2019-05-09T13:31:34.668Z,2.10
2019-05-09T13:34:03.687Z,2.10
2019-05-09T13:36:33.343Z,2.27
2019-05-09T13:39:05.030Z,2.40
2019-05-09T13:41:34.299Z,2.50
2019-05-09T13:44:05.608Z,2.13
2019-05-09T13:46:35.588Z,2.50
2019-05-09T13:49:11.630Z,2.40
2019-05-09T13:51:47.092Z,2.58
2019-05-09T13:54:07.690Z,2.13
2019-05-09T13:56:37.349Z,2.90
2019-05-09T13:59:08.373Z,2.33
2019-05-09T14:01:38.142Z,2.70
2019-05-09T14:04:08.084Z,2.80
2019-05-09T14:06:38.746Z,2.40
2019-05-09T14:09:10.441Z,2.47
2019-05-09T14:11:40.409Z,3.03
2019-05-09T14:14:09.824Z,2.37
2019-05-09T14:16:39.771Z,2.10
2019-05-09T14:19:29.316Z,2.47
2019-05-09T14:21:40.492Z,2.20
2019-05-09T14:24:15.168Z,1.90
2019-05-09T14:26:40.896Z,2.50
2019-05-09T14:29:12.680Z,2.00
2019-05-09T14:31:41.899Z,2.87
2019-05-09T14:34:11.558Z,1.90
2019-05-09T14:36:45.301Z,2.33
2019-05-09T14:39:11.974Z,2.07
2019-05-09T14:41:41.842Z,1.90
2019-05-09T14:44:11.505Z,1.73
2019-05-09T14:46:40.881Z,1.87
2019-05-09T14:49:10.612Z,2.17
2019-05-09T14:51:39.952Z,2.20
2019-05-09T14:54:09.563Z,1.87
2019-05-09T14:56:41.768Z,3.00
2019-05-09T14:59:10.090Z,2.40
2019-05-09T15:01:43.677Z,1.90
2019-05-09T15:04:10.862Z,2.50
2019-05-09T15:06:40.523Z,2.33
2019-05-09T15:09:09.858Z,2.00
2019-05-09T15:11:39.938Z,2.13
2019-05-09T15:14:09.616Z,2.40
2019-05-09T15:16:39.461Z,2.03
2019-05-09T15:19:09.174Z,2.47
2019-05-09T15:21:38.657Z,2.10
2019-05-09T15:24:09.238Z,2.30
2019-05-09T15:26:38.780Z,2.37
2019-05-09T15:29:09.112Z,2.10
2019-05-09T15:31:39.389Z,2.50
2019-05-09T15:34:10.448Z,2.60
2019-05-09T15:36:39.906Z,2.07
2019-05-09T15:39:09.866Z,2.60
2019-05-09T15:41:39.227Z,2.37
2019-05-09T15:44:08.749Z,2.53
2019-05-09T15:46:39.791Z,2.30
2019-05-09T15:49:09.151Z,2.27
2019-05-09T15:51:38.986Z,2.33
2019-05-09T15:54:08.644Z,1.90
2019-05-09T15:56:38.999Z,1.97
2019-05-09T15:59:08.938Z,2.30
2019-05-09T16:01:38.697Z,2.65
2019-05-09T16:04:08.608Z,2.07
2019-05-09T16:06:39.120Z,2.27
2019-05-09T16:09:12.052Z,2.57
2019-05-09T16:11:48.894Z,2.30
2019-05-09T16:14:18.713Z,2.20
2019-05-09T16:16:48.088Z,1.80
2019-05-09T16:19:18.098Z,2.20
2019-05-09T16:21:47.934Z,2.10
2019-05-09T16:24:18.984Z,1.97
2019-05-09T16:26:49.182Z,2.00
2019-05-09T16:29:18.840Z,1.90
2019-05-09T16:31:48.433Z,1.87
2019-05-09T16:34:18.161Z,2.30
2019-05-09T16:36:48.327Z,1.80
2019-05-09T16:39:18.339Z,2.50
2019-05-09T16:41:48.355Z,1.93
2019-05-09T16:44:18.614Z,1.53
2019-05-09T16:46:48.722Z,1.57
2019-05-09T16:49:20.010Z,2.00
2019-05-09T16:51:49.780Z,2.83
2019-05-09T16:54:21.481Z,2.03
2019-05-09T16:56:50.826Z,1.67
2019-05-09T16:59:20.185Z,2.30
2019-05-09T17:01:50.410Z,1.60
2019-05-09T17:04:20.287Z,2.13
2019-05-09T17:06:49.981Z,1.63
2019-05-09T17:09:19.348Z,1.80
2019-05-09T17:11:48.883Z,1.77
2019-05-09T17:14:19.257Z,1.70
2019-05-09T17:16:52.608Z,1.60
2019-05-09T17:19:20.068Z,1.60
2019-05-09T17:21:51.378Z,1.42
2019-05-09T17:24:22.290Z,1.87
2019-05-09T17:26:51.908Z,1.60
2019-05-09T17:29:21.524Z,2.13
2019-05-09T17:31:50.886Z,2.00
2019-05-09T17:34:20.255Z,2.70
2019-05-09T17:36:49.820Z,2.10
2019-05-09T17:39:19.507Z,3.20
2019-05-09T17:41:48.901Z,2.23
2019-05-09T17:44:18.710Z,2.30
2019-05-09T17:46:48.208Z,2.17
2019-05-09T17:49:18.307Z,1.65
2019-05-09T17:51:48.305Z,2.57
2019-05-09T17:54:18.596Z,2.10
2019-05-09T17:56:48.531Z,2.43
2019-05-09T17:59:18.693Z,2.30
2019-05-09T18:01:48.362Z,2.80
2019-05-09T18:04:18.653Z,2.90
2019-05-09T18:06:48.910Z,2.57
2019-05-09T18:09:19.073Z,2.90
2019-05-09T18:11:48.667Z,2.90
2019-05-09T18:14:18.661Z,2.63
2019-05-09T18:16:48.098Z,1.90
2019-05-09T18:19:18.884Z,2.20
2019-05-09T18:21:51.217Z,2.53
2019-05-09T18:24:19.396Z,2.17
2019-05-09T18:26:49.045Z,2.00
2019-05-09T18:29:18.433Z,2.13
2019-05-09T18:31:58.584Z,2.37
2019-05-09T18:34:28.775Z,1.90
2019-05-09T18:36:58.868Z,1.50
2019-05-09T18:39:29.641Z,2.23
2019-05-09T18:41:59.121Z,1.80
2019-05-09T18:44:28.489Z,1.60
2019-05-09T18:46:58.122Z,1.77
2019-05-09T18:49:27.779Z,1.77
2019-05-09T18:52:03.581Z,1.57
2019-05-09T18:54:28.442Z,1.70
2019-05-09T18:56:58.035Z,1.70
2019-05-09T18:59:27.689Z,1.67
2019-05-09T19:01:57.211Z,1.80
2019-05-09T19:04:26.583Z,1.67
2019-05-09T19:06:56.179Z,2.00
2019-05-09T19:09:25.528Z,1.93
2019-05-09T19:11:55.283Z,1.83
2019-05-09T19:14:24.839Z,2.20
2019-05-09T19:17:11.970Z,18.70
2019-05-09T19:19:43.006Z,2.10
2019-05-09T19:22:22.079Z,2.00
2019-05-09T19:24:43.543Z,2.20
2019-05-09T19:27:13.197Z,1.80
2019-05-09T19:29:42.865Z,2.00
2019-05-09T19:32:12.233Z,1.90
2019-05-09T19:34:42.812Z,2.07
2019-05-09T19:37:12.253Z,2.60
2019-05-09T19:39:41.598Z,2.00
2019-05-09T19:42:11.204Z,2.03
2019-05-09T19:44:40.788Z,2.10
2019-05-09T19:47:10.210Z,1.83
2019-05-09T19:49:39.555Z,2.17
2019-05-09T19:52:09.202Z,1.90
2019-05-09T19:54:38.545Z,2.10
2019-05-09T19:57:08.195Z,2.30
2019-05-09T19:59:37.536Z,2.50
2019-05-09T20:02:07.995Z,2.17
2019-05-09T20:04:37.352Z,2.33
2019-05-09T20:07:06.721Z,2.07
2019-05-09T20:09:38.043Z,2.12
2019-05-09T20:12:09.373Z,2.30
2019-05-09T20:14:41.070Z,1.90
2019-05-09T20:17:10.837Z,2.43
2019-05-09T20:19:40.333Z,2.70
2019-05-09T20:22:09.701Z,2.80
2019-05-09T20:24:39.307Z,2.70
2019-05-09T20:27:08.663Z,2.93
2019-05-09T20:29:38.252Z,2.87
2019-05-09T20:32:07.857Z,2.87
2019-05-09T20:34:37.374Z,3.07
2019-05-09T20:37:07.046Z,2.97
2019-05-09T20:39:36.823Z,3.27
2019-05-09T20:42:06.599Z,2.67
2019-05-09T20:45:24.821Z,2.58
2019-05-09T20:47:54.381Z,2.90
2019-05-09T20:50:24.087Z,3.10
2019-05-09T20:53:08.516Z,2.90
2019-05-09T20:55:25.124Z,2.50
2019-05-09T20:57:54.973Z,2.80
2019-05-09T21:00:24.506Z,2.70
2019-05-09T21:02:54.364Z,2.83
2019-05-09T21:05:24.169Z,2.80
2019-05-09T21:07:54.000Z,3.20
2019-05-09T21:10:23.610Z,3.20
2019-05-09T21:12:53.460Z,3.20
2019-05-09T21:15:23.353Z,2.80
2019-05-09T21:17:53.202Z,3.33
2019-05-09T21:20:22.751Z,3.10
2019-05-09T21:22:52.672Z,2.73
2019-05-09T21:25:22.275Z,2.77
2019-05-09T21:27:52.638Z,3.02
2019-05-09T21:30:22.334Z,2.80
2019-05-09T21:32:52.621Z,3.58
2019-05-09T21:35:22.102Z,3.47
2019-05-09T21:37:52.402Z,3.17
2019-05-09T21:40:22.620Z,3.90
2019-05-09T21:42:52.674Z,3.10
2019-05-09T21:45:22.131Z,3.50
2019-05-09T21:47:52.512Z,3.33
2019-05-09T21:50:22.090Z,3.40
2019-05-09T21:52:52.735Z,2.98
2019-05-09T21:55:22.276Z,4.07
2019-05-09T21:57:52.522Z,3.20
2019-05-09T22:00:26.412Z,3.70
2019-05-09T22:02:57.694Z,3.33
2019-05-09T22:05:27.199Z,3.60
2019-05-09T22:07:56.587Z,3.87
2019-05-09T22:10:26.259Z,4.07
2019-05-09T22:12:55.651Z,3.50
2019-05-09T22:15:25.214Z,3.50
2019-05-09T22:17:54.591Z,4.47
2019-05-09T22:20:24.224Z,3.90
2019-05-09T22:22:53.886Z,3.90
2019-05-09T22:25:23.291Z,3.90
2019-05-09T22:27:53.385Z,4.03
2019-05-09T22:30:23.435Z,4.27
2019-05-09T22:32:55.241Z,3.90
2019-05-09T22:35:25.379Z,4.63
2019-05-09T22:37:57.598Z,4.37
2019-05-09T22:40:29.484Z,4.20
2019-05-09T22:43:00.854Z,4.23
2019-05-09T22:45:30.783Z,4.70
2019-05-09T22:48:00.530Z,4.70
2019-05-09T22:50:30.854Z,4.63
2019-05-09T22:53:00.853Z,4.45
2019-05-09T22:55:30.486Z,4.92
2019-05-09T22:57:59.869Z,5.70
2019-05-09T23:00:31.816Z,5.27
2019-05-09T23:03:01.492Z,5.58
2019-05-09T23:05:30.912Z,5.50
2019-05-09T23:08:00.879Z,5.90
2019-05-09T23:10:30.562Z,5.50
2019-05-09T23:12:59.939Z,5.63
2019-05-09T23:15:29.528Z,5.20
2019-05-09T23:17:58.909Z,5.60
2019-05-09T23:20:35.805Z,6.20
2019-05-09T23:23:07.434Z,6.00
2019-05-09T23:25:36.796Z,6.63
2019-05-09T23:28:06.468Z,7.62
2019-05-09T23:30:35.830Z,8.20
2019-05-09T23:33:05.498Z,8.90
2019-05-09T23:35:34.848Z,10.77
2019-05-09T23:38:04.880Z,11.08
2019-05-09T23:40:34.588Z,11.73
2019-05-09T23:43:04.124Z,11.80
2019-05-09T23:45:33.645Z,11.73
2019-05-09T23:48:03.008Z,11.50
2019-05-09T23:50:32.607Z,12.10
2019-05-09T23:53:02.271Z,12.57
2019-05-09T23:55:49.567Z,15.23
2019-05-09T23:58:36.634Z,11.73
